Time;durP1;ratioP1;P1;durP2;ratioP2;P2;SDS_P1;SDS_P2;PMS_P1;PMS_P2;Temp;Humidity;BMP_temperature;BMP_pressure;BME280_temperature;BME280_humidity;BME280_pressure;Samples;Min_cycle;Max_cycle;Signal;HPM_P1;HPM_P2
2021/09/03 00:00:12;;;;;;;16.90;12.60;;;;;;;12.81;92.02;99659.13;111242;1205;60980;-84
2021/09/03 00:02:59;;;;;;;15.40;12.20;;;;;;;12.79;92.27;99661.27;111234;1204;66221;-84
2021/09/03 00:05:25;;;;;;;17.60;13.20;;;;;;;12.78;92.22;99658.63;111302;1205;61078;-84
2021/09/03 00:07:52;;;;;;;17.50;13.40;;;;;;;12.79;92.23;99659.11;111306;1197;61086;-84
2021/09/03 00:10:20;;;;;;;18.00;13.60;;;;;;;12.76;92.33;99655.55;111235;1197;66010;-84
2021/09/03 00:12:47;;;;;;;18.90;12.90;;;;;;;12.71;92.30;99653.35;111260;1204;61014;-83
2021/09/03 00:15:15;;;;;;;17.90;13.00;;;;;;;12.66;92.45;99653.86;111237;1205;72582;-86
2021/09/03 00:17:42;;;;;;;18.90;12.20;;;;;;;12.63;92.46;99653.16;111259;1201;61181;-86
2021/09/03 00:20:11;;;;;;;17.10;12.80;;;;;;;12.61;92.40;99651.91;111315;1204;61087;-85
2021/09/03 00:22:38;;;;;;;14.50;12.10;;;;;;;12.58;92.32;99651.92;111274;1204;64649;-85
2021/09/03 00:25:06;;;;;;;17.00;12.40;;;;;;;12.56;92.45;99649.35;111146;1205;61088;-85
2021/09/03 00:27:34;;;;;;;16.40;12.90;;;;;;;12.55;92.47;99650.54;111246;1198;64018;-84
2021/09/03 00:30:00;;;;;;;19.20;13.80;;;;;;;12.53;92.51;99651.02;111221;1205;61208;-84
2021/09/03 00:32:27;;;;;;;17.40;13.90;;;;;;;12.51;92.69;99650.58;111281;1204;61115;-84
2021/09/03 00:34:54;;;;;;;17.00;12.20;;;;;;;12.51;92.69;99650.58;111242;1205;65894;-83
2021/09/03 00:37:20;;;;;;;17.10;12.90;;;;;;;12.50;92.72;99650.83;111284;1204;61051;-84
2021/09/03 00:39:47;;;;;;;15.10;12.10;;;;;;;12.49;92.73;99651.38;111224;1204;63976;-84
2021/09/03 00:42:15;;;;;;;19.00;13.30;;;;;;;12.49;92.78;99651.21;111263;1205;61085;-85
2021/09/03 00:44:42;;;;;;;15.00;12.30;;;;;;;12.50;92.82;99646.86;111306;1205;61053;-85
2021/09/03 00:47:09;;;;;;;16.90;13.20;;;;;;;12.51;92.75;99646.83;111247;1205;64420;-84
2021/09/03 00:49:35;;;;;;;19.20;13.80;;;;;;;12.51;92.96;99645.55;111310;1204;61070;-87
2021/09/03 00:52:05;;;;;;;18.30;12.70;;;;;;;12.54;93.03;99646.45;111723;1205;62399;-85
2021/09/03 00:54:32;;;;;;;14.90;13.00;;;;;;;12.59;93.07;99644.01;111538;1205;61117;-83
2021/09/03 00:57:00;;;;;;;19.30;13.70;;;;;;;12.63;93.05;99640.73;111338;1204;61079;-83
2021/09/03 00:59:26;;;;;;;14.70;11.30;;;;;;;12.68;93.04;99638.63;112043;1204;64714;-85
2021/09/03 01:01:53;;;;;;;17.60;13.50;;;;;;;12.72;93.11;99638.52;111350;1204;61006;-84
2021/09/03 01:04:20;;;;;;;19.00;13.10;;;;;;;12.76;93.17;99630.61;111088;1205;63710;-86
2021/09/03 01:06:47;;;;;;;15.80;13.10;;;;;;;12.79;93.22;99624.00;111260;1205;61109;-86
2021/09/03 01:09:13;;;;;;;14.40;12.50;;;;;;;12.82;93.30;99621.11;111263;1202;61695;-85
2021/09/03 01:11:40;;;;;;;15.50;11.90;;;;;;;12.81;93.20;99619.57;111225;1205;66054;-85
2021/09/03 01:14:07;;;;;;;16.30;12.70;;;;;;;12.78;93.06;99617.27;111202;1199;61018;-85
2021/09/03 01:16:33;;;;;;;15.40;12.70;;;;;;;12.77;93.16;99617.16;111266;1205;62569;-85
2021/09/03 01:19:00;;;;;;;15.50;12.30;;;;;;;12.75;93.21;99613.55;111226;1205;61018;-85
2021/09/03 01:21:27;;;;;;;17.30;13.10;;;;;;;12.69;93.34;99610.33;111143;1203;61078;-85
2021/09/03 01:23:54;;;;;;;21.70;13.80;;;;;;;12.70;93.57;99609.36;111228;1198;67029;-85
2021/09/03 01:26:21;;;;;;;17.60;13.80;;;;;;;12.72;93.69;99606.93;111268;1204;61045;-85
2021/09/03 01:28:48;;;;;;;17.60;14.00;;;;;;;12.73;93.85;99607.73;111250;1205;62595;-85
2021/09/03 01:31:15;;;;;;;18.30;13.60;;;;;;;12.73;93.88;99600.60;111241;1205;61397;-85
2021/09/03 01:33:42;;;;;;;19.50;14.90;;;;;;;12.75;93.93;99594.63;111286;1198;61024;-85
2021/09/03 01:36:09;;;;;;;18.60;14.10;;;;;;;12.77;94.02;99596.13;111219;1204;66001;-85
2021/09/03 01:38:37;;;;;;;19.40;13.90;;;;;;;12.78;94.06;99600.88;111273;1204;61074;-85
2021/09/03 01:41:04;;;;;;;18.60;13.60;;;;;;;12.77;94.06;99604.13;111243;1204;63775;-85
2021/09/03 01:43:30;;;;;;;20.00;14.90;;;;;;;12.77;94.23;99602.36;111216;1204;60975;-85
2021/09/03 01:45:57;;;;;;;20.30;14.10;;;;;;;12.76;94.13;99599.92;111306;1205;61101;-84
2021/09/03 01:48:24;;;;;;;19.50;13.10;;;;;;;12.78;94.32;99600.70;111216;1198;65979;-84
2021/09/03 01:50:50;;;;;;;18.10;12.70;;;;;;;12.80;94.44;99600.02;111279;1205;60980;-84
2021/09/03 01:53:17;;;;;;;19.30;13.40;;;;;;;12.83;94.40;99599.45;111239;1205;62626;-84
2021/09/03 01:55:44;;;;;;;18.10;13.30;;;;;;;12.86;94.51;99596.77;111260;1203;61112;-84
2021/09/03 01:58:10;;;;;;;19.70;12.70;;;;;;;12.90;94.55;99594.55;111232;1199;61112;-84
2021/09/03 02:00:37;;;;;;;17.10;12.60;;;;;;;12.91;94.56;99590.49;111268;1205;65681;-84
2021/09/03 02:03:03;;;;;;;15.10;12.00;;;;;;;12.93;94.55;99585.77;111266;1197;61014;-84
2021/09/03 02:05:30;;;;;;;15.20;11.60;;;;;;;12.99;94.61;99584.50;111253;1207;64061;-84
2021/09/03 02:07:57;;;;;;;19.00;12.80;;;;;;;13.01;94.61;99587.18;111158;1205;61144;-84
2021/09/03 02:10:23;;;;;;;15.30;11.60;;;;;;;13.00;94.39;99580.10;111213;1198;61015;-84
2021/09/03 02:12:50;;;;;;;20.30;12.00;;;;;;;13.01;94.53;99577.02;111209;1206;64729;-84
2021/09/03 02:15:16;;;;;;;16.80;11.80;;;;;;;13.01;94.56;99572.91;111227;1205;61091;-85
2021/09/03 02:17:43;;;;;;;15.00;10.90;;;;;;;13.02;94.48;99568.44;111223;1204;64128;-84
2021/09/03 02:20:10;;;;;;;12.90;11.20;;;;;;;13.04;94.71;99561.33;111243;1198;61022;-84
2021/09/03 02:22:36;;;;;;;14.70;11.20;;;;;;;13.10;94.70;99559.27;111240;1197;61070;-84
2021/09/03 02:25:04;;;;;;;14.60;10.40;;;;;;;13.12;94.69;99559.09;111211;1205;64768;-85
2021/09/03 02:27:30;;;;;;;14.80;11.40;;;;;;;13.17;94.77;99555.60;111153;1206;61098;-83
2021/09/03 02:29:58;;;;;;;14.60;12.60;;;;;;;13.21;94.72;99553.37;111236;1204;63638;-83
2021/09/03 02:32:25;;;;;;;15.20;11.70;;;;;;;13.21;94.69;99551.94;111225;1198;61101;-85
2021/09/03 02:34:51;;;;;;;13.70;12.00;;;;;;;13.16;94.52;99548.31;111263;1199;61042;-83
2021/09/03 02:37:18;;;;;;;16.40;12.00;;;;;;;13.11;94.50;99546.40;111240;1205;64631;-83
2021/09/03 02:39:46;;;;;;;15.50;12.40;;;;;;;13.05;94.74;99543.70;111222;1204;61014;-83
2021/09/03 02:42:12;;;;;;;15.20;11.60;;;;;;;13.01;94.72;99543.15;111246;1206;62634;-85
2021/09/03 02:44:39;;;;;;;13.50;11.20;;;;;;;12.96;94.77;99542.05;111221;1196;61041;-86
2021/09/03 02:47:05;;;;;;;18.20;11.70;;;;;;;12.95;94.99;99539.97;111229;1197;61033;-85
2021/09/03 02:49:32;;;;;;;12.20;10.30;;;;;;;12.95;95.07;99542.13;111233;1206;65840;-86
2021/09/03 02:51:59;;;;;;;14.50;10.80;;;;;;;12.94;95.02;99543.38;110936;1205;61027;-84
2021/09/03 02:54:25;;;;;;;14.20;11.30;;;;;;;12.95;95.17;99543.14;111045;1206;62596;-84
2021/09/03 02:56:52;;;;;;;11.80;10.20;;;;;;;12.98;95.35;99541.36;110949;1205;61197;-84
2021/09/03 02:59:19;;;;;;;12.80;10.50;;;;;;;13.01;95.34;99537.64;111026;1204;61089;-84
2021/09/03 03:01:45;;;;;;;11.70;10.40;;;;;;;13.03;95.36;99537.45;111086;1205;65994;-85
2021/09/03 03:04:12;;;;;;;15.70;10.70;;;;;;;13.05;95.39;99536.06;111220;1204;61101;-85
2021/09/03 03:06:38;;;;;;;12.30;10.50;;;;;;;13.06;95.20;99532.81;111067;1205;63940;-87
2021/09/03 03:09:05;;;;;;;11.20;9.10;;;;;;;13.06;95.29;99536.21;111230;1206;61082;-85
2021/09/03 03:11:32;;;;;;;11.70;9.50;;;;;;;13.06;95.32;99533.34;111224;1198;61174;-85
2021/09/03 03:14:11;;;;;;;11.70;9.70;;;;;;;13.07;95.28;99537.02;111185;1205;65788;-85
2021/09/03 03:16:37;;;;;;;11.30;8.80;;;;;;;13.09;95.41;99536.84;111201;1205;61069;-85
2021/09/03 03:19:04;;;;;;;12.20;10.00;;;;;;;13.13;95.35;99533.76;111179;1205;62739;-85
2021/09/03 03:21:31;;;;;;;9.70;8.40;;;;;;;13.17;95.50;99531.69;111214;1205;61078;-85
2021/09/03 03:23:57;;;;;;;11.80;9.30;;;;;;;13.21;95.48;99531.39;111216;1198;61038;-85
2021/09/03 03:26:24;;;;;;;11.70;9.10;;;;;;;13.23;95.54;99531.78;111214;1205;64671;-85
2021/09/03 03:28:51;;;;;;;12.20;9.00;;;;;;;13.25;95.52;99531.31;111239;1205;61171;-85
2021/09/03 03:31:18;;;;;;;11.80;9.90;;;;;;;13.26;95.44;99528.23;111201;1205;64705;-86
2021/09/03 03:33:45;;;;;;;13.60;9.40;;;;;;;13.25;95.16;99525.10;111238;1197;61079;-83
2021/09/03 03:36:11;;;;;;;14.00;9.20;;;;;;;13.24;95.26;99524.59;111229;1197;61092;-84
2021/09/03 03:38:38;;;;;;;13.00;9.30;;;;;;;13.25;95.39;99527.23;111260;1205;64649;-84
2021/09/03 03:41:04;;;;;;;11.70;9.50;;;;;;;13.26;95.33;99528.41;111248;1197;60981;-86
2021/09/03 03:43:31;;;;;;;13.20;9.70;;;;;;;13.22;95.03;99527.44;111250;1205;62532;-84
2021/09/03 03:45:58;;;;;;;12.40;10.00;;;;;;;13.18;95.12;99527.52;111233;1205;61110;-83
2021/09/03 03:48:26;;;;;;;11.50;9.40;;;;;;;13.16;95.12;99527.08;111214;1198;61091;-86
2021/09/03 03:50:53;;;;;;;11.10;9.10;;;;;;;13.13;94.98;99523.02;111623;1204;65811;-85
2021/09/03 03:53:19;;;;;;;11.20;8.50;;;;;;;13.09;94.92;99524.73;111440;1198;61714;-84
2021/09/03 03:55:46;;;;;;;11.20;8.70;;;;;;;13.06;94.87;99525.11;111307;1206;62672;-86
2021/09/03 03:58:13;;;;;;;10.60;9.10;;;;;;;13.03;94.88;99523.36;111872;1197;61114;-85
2021/09/03 04:00:39;;;;;;;10.90;7.90;;;;;;;13.02;94.91;99522.00;111329;1197;61014;-85
2021/09/03 04:03:06;;;;;;;11.80;8.40;;;;;;;13.02;94.70;99525.77;111071;1203;65774;-87
2021/09/03 04:05:33;;;;;;;12.40;9.80;;;;;;;13.00;94.77;99519.98;111182;1204;61057;-86
2021/09/03 04:07:59;;;;;;;11.80;9.20;;;;;;;12.97;94.81;99523.77;111177;1205;64059;-86
2021/09/03 04:10:26;;;;;;;10.80;9.60;;;;;;;12.93;94.66;99522.95;111233;1200;61072;-84
2021/09/03 04:12:53;;;;;;;14.00;9.00;;;;;;;12.90;94.64;99523.52;111184;1197;61090;-84
2021/09/03 04:15:19;;;;;;;10.30;8.20;;;;;;;12.85;94.50;99520.65;111154;1205;64497;-83
2021/09/03 04:17:46;;;;;;;10.30;8.40;;;;;;;12.79;94.51;99521.14;111182;1205;61037;-84
2021/09/03 04:20:13;;;;;;;11.90;8.50;;;;;;;12.74;94.67;99516.77;111179;1204;64009;-84
2021/09/03 04:22:40;;;;;;;10.60;8.40;;;;;;;12.69;94.55;99515.32;111234;1199;61104;-84
2021/09/03 04:25:07;;;;;;;11.40;8.20;;;;;;;12.66;94.57;99516.63;111286;1197;61044;-84
2021/09/03 04:27:36;;;;;;;13.50;8.40;;;;;;;12.66;94.58;99517.34;111261;1205;66037;-84
2021/09/03 04:30:04;;;;;;;11.00;8.40;;;;;;;12.65;94.51;99511.85;111230;1205;61059;-85
2021/09/03 04:32:31;;;;;;;17.40;9.70;;;;;;;12.62;94.44;99515.06;111196;1205;63758;-86
2021/09/03 04:34:57;;;;;;;10.50;8.40;;;;;;;12.63;94.54;99512.92;111209;1204;61138;-85
2021/09/03 04:37:24;;;;;;;11.70;8.70;;;;;;;12.64;94.52;99514.23;111206;1197;61046;-82
2021/09/03 04:39:51;;;;;;;11.30;8.80;;;;;;;12.66;94.57;99514.29;111197;1204;66055;-83
2021/09/03 04:42:17;;;;;;;12.70;9.10;;;;;;;12.67;94.45;99514.19;110981;1201;60987;-86
2021/09/03 04:44:44;;;;;;;12.90;9.80;;;;;;;12.71;94.43;99517.34;111204;1204;64938;-84
2021/09/03 04:47:11;;;;;;;12.00;9.60;;;;;;;12.76;94.38;99518.25;111234;1205;61005;-85
2021/09/03 04:49:38;;;;;;;12.00;8.50;;;;;;;12.81;94.41;99516.69;111151;1206;61081;-86
2021/09/03 04:55:46;;;;;;;12.80;10.00;;;;;;;12.92;94.20;99514.86;111210;1205;61008;-83
2021/09/03 04:58:12;;;;;;;11.30;9.10;;;;;;;12.98;94.00;99515.14;111240;1204;64134;-83
2021/09/03 05:00:39;;;;;;;15.70;10.30;;;;;;;13.06;93.87;99512.44;111207;1205;61075;-86
2021/09/03 05:03:06;;;;;;;12.90;9.60;;;;;;;13.15;93.72;99514.86;111212;1205;61134;-86
2021/09/03 05:05:33;;;;;;;11.20;9.00;;;;;;;13.24;93.54;99512.65;111203;1204;64656;-83
2021/09/03 05:08:00;;;;;;;13.60;8.60;;;;;;;13.33;93.43;99506.32;111159;1205;61127;-86
2021/09/03 05:10:26;;;;;;;10.40;8.60;;;;;;;13.41;93.10;99508.27;111176;1205;64674;-86
2021/09/03 05:12:53;;;;;;;9.70;8.60;;;;;;;13.50;93.01;99506.58;111154;1197;61197;-85
2021/09/03 05:15:30;;;;;;;12.60;8.80;;;;;;;13.55;92.66;99506.77;111104;1199;61168;-85
2021/09/03 05:17:56;;;;;;;11.50;8.80;;;;;;;13.61;92.53;99507.59;111189;1204;65914;-85
2021/09/03 05:20:23;;;;;;;12.70;7.90;;;;;;;13.75;92.17;99510.88;111230;1203;61095;-86
2021/09/03 05:22:49;;;;;;;11.80;8.80;;;;;;;14.25;91.02;99509.70;111260;1204;64932;-87
2021/09/03 05:25:16;;;;;;;12.20;9.40;;;;;;;14.25;90.77;99512.55;111237;1204;61075;-84
2021/09/03 05:27:43;;;;;;;11.30;8.60;;;;;;;14.19;90.98;99511.20;111225;1197;61104;-86
2021/09/03 05:30:10;;;;;;;10.20;8.10;;;;;;;14.20;91.12;99507.38;111211;1204;64576;-85
2021/09/03 05:32:37;;;;;;;10.80;9.00;;;;;;;14.20;90.87;99508.83;111186;1197;61107;-84
2021/09/03 05:35:06;;;;;;;11.50;9.60;;;;;;;14.17;90.79;99504.59;111206;1204;64962;-84
2021/09/03 05:37:33;;;;;;;14.10;9.40;;;;;;;14.16;90.69;99503.94;111314;1204;61010;-83
2021/09/03 05:40:01;;;;;;;10.90;9.80;;;;;;;14.13;90.53;99503.96;111222;1196;61059;-82
2021/09/03 05:42:28;;;;;;;12.20;9.40;;;;;;;14.14;90.39;99505.55;111276;1204;65993;-84
2021/09/03 05:44:55;;;;;;;10.80;8.70;;;;;;;14.29;90.40;99502.48;111231;1204;61074;-83
2021/09/03 05:47:22;;;;;;;13.10;9.10;;;;;;;14.66;89.29;99500.94;111271;1204;62716;-83
2021/09/03 05:49:49;;;;;;;11.60;8.70;;;;;;;15.09;88.55;99502.88;111197;1198;61070;-83
2021/09/03 05:52:15;;;;;;;9.70;8.00;;;;;;;15.47;87.93;99502.39;111182;1197;61071;-83
2021/09/03 05:54:42;;;;;;;10.30;8.50;;;;;;;15.75;87.20;99502.02;111296;1204;64432;-83
2021/09/03 05:57:09;;;;;;;10.10;8.60;;;;;;;16.01;86.59;99500.94;111314;1204;61553;-84
2021/09/03 05:59:35;;;;;;;14.10;8.50;;;;;;;16.18;86.35;99500.80;111223;1204;64007;-83
2021/09/03 06:02:02;;;;;;;10.10;7.80;;;;;;;16.39;85.73;99497.65;111252;1196;61054;-83
2021/09/03 06:04:29;;;;;;;8.70;7.70;;;;;;;16.64;85.08;99493.98;111258;1196;61009;-83
2021/09/03 06:06:55;;;;;;;9.10;7.70;;;;;;;16.91;84.88;99491.58;111226;1204;64794;-83
2021/09/03 06:09:22;;;;;;;8.40;7.50;;;;;;;17.19;84.41;99489.48;111243;1203;61173;-83
2021/09/03 06:11:51;;;;;;;8.20;7.30;;;;;;;17.41;83.79;99486.45;111227;1204;63960;-83
2021/09/03 06:14:17;;;;;;;8.60;7.40;;;;;;;17.62;82.95;99483.36;111238;1195;61111;-83
2021/09/03 06:16:44;;;;;;;9.80;7.90;;;;;;;17.79;82.47;99479.78;111280;1197;61431;-84
2021/09/03 06:19:11;;;;;;;9.20;6.90;;;;;;;18.00;82.17;99480.63;111218;1205;66076;-83
2021/09/03 06:21:37;;;;;;;8.90;7.80;;;;;;;18.15;81.64;99479.72;111241;1204;61073;-83
2021/09/03 06:24:27;;;;;;;7.40;6.60;;;;;;;18.34;81.36;99480.88;111195;1205;62626;-83
2021/09/03 06:26:50;;;;;;;7.60;6.80;;;;;;;18.44;80.47;99479.98;111215;1197;61197;-83
2021/09/03 06:29:37;;;;;;;8.30;6.60;;;;;;;18.51;80.57;99482.43;111253;1197;61124;-84
2021/09/03 06:32:07;;;;;;;8.80;6.90;;;;;;;18.60;79.40;99479.80;111203;1200;65994;-85
2021/09/03 06:34:35;;;;;;;9.20;7.00;;;;;;;18.55;79.17;99478.23;111217;1205;60994;-84
2021/09/03 06:37:02;;;;;;;7.40;6.40;;;;;;;18.54;79.17;99478.20;111196;1197;63647;-83
2021/09/03 06:39:29;;;;;;;7.80;6.60;;;;;;;18.41;79.33;99479.70;111223;1205;61091;-83
2021/09/03 06:41:55;;;;;;;8.80;6.80;;;;;;;18.23;79.39;99479.73;111237;1197;61010;-83
2021/09/03 06:44:22;;;;;;;8.00;6.50;;;;;;;18.12;79.83;99479.87;111298;1204;64685;-84
2021/09/03 06:46:49;;;;;;;7.80;6.60;;;;;;;18.04;79.79;99478.26;111278;1204;68865;-82
2021/09/03 06:49:16;;;;;;;8.20;6.80;;;;;;;18.03;79.94;99474.79;111283;1204;63959;-87
2021/09/03 06:51:42;;;;;;;8.90;7.00;;;;;;;18.11;80.16;99473.80;111391;1196;61005;-83
2021/09/03 06:54:09;;;;;;;8.50;6.80;;;;;;;18.21;79.48;99476.39;111236;1204;61008;-85
2021/09/03 06:56:36;;;;;;;7.00;6.30;;;;;;;18.17;79.46;99476.86;111284;1204;65780;-85
2021/09/03 06:59:03;;;;;;;7.50;6.60;;;;;;;18.12;79.80;99478.46;111358;1205;61021;-85
2021/09/03 07:01:30;;;;;;;7.60;6.70;;;;;;;18.06;79.78;99477.58;111145;1205;63975;-85
2021/09/03 07:03:57;;;;;;;9.40;7.00;;;;;;;18.02;79.99;99475.95;111135;1198;61198;-86
2021/09/03 07:06:23;;;;;;;7.50;6.30;;;;;;;17.97;79.50;99472.34;111206;1197;61115;-86
2021/09/03 07:08:50;;;;;;;7.40;6.50;;;;;;;17.96;79.76;99469.80;111134;1204;64525;-83
2021/09/03 07:11:17;;;;;;;6.90;6.10;;;;;;;17.94;79.45;99465.28;111197;1197;61088;-84
2021/09/03 07:13:43;;;;;;;8.90;6.40;;;;;;;17.92;79.20;99466.21;111154;1205;62590;-84
2021/09/03 07:16:11;;;;;;;6.80;6.10;;;;;;;17.93;78.96;99464.30;111249;1204;61025;-84
2021/09/03 07:18:37;;;;;;;8.10;6.90;;;;;;;17.95;79.09;99464.16;111039;1198;61141;-84
2021/09/03 07:21:04;;;;;;;6.90;6.20;;;;;;;18.02;78.93;99466.90;111210;1204;64641;-83
2021/09/03 07:23:31;;;;;;;7.90;6.10;;;;;;;18.07;78.49;99467.89;111193;1204;60995;-84
2021/09/03 07:26:00;;;;;;;7.10;6.00;;;;;;;18.08;78.12;99465.45;111163;1204;63999;-84
2021/09/03 07:28:28;;;;;;;7.20;5.60;;;;;;;18.13;78.69;99465.06;111199;1196;61783;-84
2021/09/03 07:30:55;;;;;;;6.80;5.70;;;;;;;18.19;78.57;99463.17;111163;1197;61056;-84
2021/09/03 07:33:21;;;;;;;8.00;6.60;;;;;;;18.30;78.59;99464.17;111221;1205;64634;-84
2021/09/03 07:35:48;;;;;;;7.90;6.00;;;;;;;18.40;78.35;99461.09;111173;1205;61062;-84
2021/09/03 07:38:15;;;;;;;6.90;6.00;;;;;;;18.48;77.72;99461.30;111239;1204;62634;-84
2021/09/03 07:40:42;;;;;;;7.00;6.10;;;;;;;18.53;77.28;99461.73;111240;1197;61120;-84
2021/09/03 07:43:09;;;;;;;7.40;5.40;;;;;;;18.67;77.69;99461.48;111253;1204;61078;-85
2021/09/03 07:45:38;;;;;;;7.00;6.00;;;;;;;18.92;77.50;99460.08;111281;1204;65788;-84
2021/09/03 07:48:06;;;;;;;7.20;6.30;;;;;;;19.21;76.75;99462.23;111237;1205;61108;-84
2021/09/03 07:50:33;;;;;;;6.70;5.90;;;;;;;19.38;76.63;99460.39;111232;1197;63885;-84
2021/09/03 07:53:03;;;;;;;8.20;6.50;;;;;;;19.55;76.09;99461.52;111301;1197;61112;-83
2021/09/03 07:55:31;;;;;;;7.70;6.10;;;;;;;19.66;75.97;99460.72;111240;1204;61094;-83
2021/09/03 07:57:57;;;;;;;6.60;5.90;;;;;;;19.81;75.61;99457.16;111241;1198;65710;-83
2021/09/03 08:00:24;;;;;;;9.90;6.70;;;;;;;19.99;75.41;99454.52;111296;1204;60993;-84
2021/09/03 08:02:51;;;;;;;8.90;6.30;;;;;;;20.13;75.34;99448.90;111262;1204;62435;-83
2021/09/03 08:05:18;;;;;;;6.30;5.70;;;;;;;20.25;74.81;99445.27;111198;1204;61006;-83
2021/09/03 08:07:44;;;;;;;6.90;6.20;;;;;;;20.25;74.05;99442.15;111199;1197;61033;-84
2021/09/03 08:10:13;;;;;;;7.30;6.60;;;;;;;20.24;74.26;99440.05;111144;1199;64605;-84
2021/09/03 08:12:40;;;;;;;6.90;6.20;;;;;;;20.17;73.12;99443.15;111318;1204;61101;-84
2021/09/03 08:15:09;;;;;;;7.00;6.10;;;;;;;20.05;73.14;99444.46;111187;1204;62334;-84
2021/09/03 08:17:36;;;;;;;7.80;6.30;;;;;;;19.99;73.51;99445.13;111152;1205;61224;-87
2021/09/03 08:20:05;;;;;;;7.70;6.00;;;;;;;19.92;73.60;99445.25;111204;1204;61095;-88
2021/09/03 08:22:31;;;;;;;7.00;6.20;;;;;;;19.87;73.84;99439.80;111287;1204;64343;-88
2021/09/03 08:24:58;;;;;;;7.70;6.90;;;;;;;19.82;73.72;99433.98;111288;1204;60992;-87
2021/09/03 08:27:25;;;;;;;6.90;5.80;;;;;;;19.79;74.00;99433.25;111282;1205;65005;-88
2021/09/03 08:29:51;;;;;;;7.20;5.80;;;;;;;19.78;73.78;99433.13;111311;1204;61121;-87
2021/09/03 08:32:18;;;;;;;9.00;6.30;;;;;;;19.78;73.98;99431.85;111245;1197;61099;-88
2021/09/03 08:34:45;;;;;;;9.00;6.20;;;;;;;19.83;74.05;99434.02;111210;1204;65998;-88
2021/09/03 08:37:12;;;;;;;8.20;6.20;;;;;;;19.90;73.82;99432.65;111246;1204;61113;-87
2021/09/03 08:39:38;;;;;;;8.20;6.20;;;;;;;19.90;73.63;99425.04;111222;1205;63972;-89
2021/09/03 08:42:06;;;;;;;7.70;5.40;;;;;;;19.94;74.08;99424.64;111252;1196;61072;-88
2021/09/03 08:44:33;;;;;;;6.50;5.80;;;;;;;20.04;74.36;99419.91;111267;1196;61032;-88
2021/09/03 08:47:00;;;;;;;6.40;5.80;;;;;;;20.15;74.21;99421.31;111304;1204;65980;-88
2021/09/03 08:49:27;;;;;;;6.70;5.90;;;;;;;20.21;73.70;99417.29;111269;1204;61082;-87
2021/09/03 08:51:57;;;;;;;6.40;5.90;;;;;;;20.27;73.89;99416.46;111184;1198;63991;-87
2021/09/03 08:54:24;;;;;;;6.40;5.70;;;;;;;20.32;73.48;99412.73;111294;1204;61022;-88
2021/09/03 08:56:51;;;;;;;6.60;6.00;;;;;;;20.37;73.48;99414.56;111210;1197;61068;-87
2021/09/03 08:59:17;;;;;;;8.80;6.30;;;;;;;20.43;73.41;99412.39;111196;1205;66027;-87
2021/09/03 09:02:10;;;;;;;7.10;6.40;;;;;;;20.48;73.18;99409.15;111204;1197;60995;-86
2021/09/03 09:04:38;;;;;;;10.10;6.70;;;;;;;20.53;73.02;99409.56;111213;1205;62686;-89
2021/09/03 09:07:06;;;;;;;9.70;6.40;;;;;;;20.56;73.00;99406.03;111271;1204;61037;-90
2021/09/03 09:09:36;;;;;;;6.80;6.00;;;;;;;20.54;71.61;99407.14;111224;1204;61008;-86
2021/09/03 09:12:10;;;;;;;14.30;7.60;;;;;;;20.52;72.02;99402.04;111202;1204;64673;-78
2021/09/03 09:15:10;;;;;;;15.50;7.50;;;;;;;20.57;72.34;99403.23;111150;1204;69009;-81
2021/09/03 09:17:40;;;;;;;9.90;5.90;;;;;;;20.75;72.51;99396.13;111255;1204;62631;-81
2021/09/03 09:20:09;;;;;;;5.90;4.90;;;;;;;20.90;72.21;99392.91;111214;1204;61005;-79
2021/09/03 09:22:54;;;;;;;5.80;5.30;;;;;;;20.98;69.60;99395.23;111141;1204;61126;-79
2021/09/03 09:25:32;;;;;;;6.30;4.90;;;;;;;20.96;69.42;99397.05;111106;1204;64710;-79
2021/09/03 09:28:20;;;;;;;6.70;5.50;;;;;;;21.02;69.83;99393.84;111166;1204;61021;-79
2021/09/03 09:30:49;;;;;;;6.50;5.30;;;;;;;21.20;69.75;99394.38;111160;1204;62597;-79
2021/09/03 09:33:21;;;;;;;5.50;4.70;;;;;;;21.35;69.08;99387.16;111177;1204;61111;-80
2021/09/03 09:35:55;;;;;;;5.90;5.30;;;;;;;21.50;69.57;99384.70;111169;1204;61004;-79
2021/09/03 09:38:45;;;;;;;6.70;5.50;;;;;;;21.64;69.29;99378.38;111200;1204;66027;-80
2021/09/03 09:41:13;;;;;;;5.70;4.40;;;;;;;21.74;68.63;99378.86;111157;1197;61038;-78
2021/09/03 09:43:42;;;;;;;5.90;5.30;;;;;;;21.85;67.77;99379.02;111119;1204;63795;-79
2021/09/03 09:46:11;;;;;;;5.00;4.50;;;;;;;21.87;66.65;99376.20;111248;1204;61078;-79
2021/09/03 09:48:50;;;;;;;5.30;4.90;;;;;;;21.93;67.32;99371.95;111187;1197;60995;-81
2021/09/03 09:51:24;;;;;;;5.70;4.80;;;;;;;22.13;66.76;99370.94;111182;1204;65969;-79
2021/09/03 09:53:57;;;;;;;5.70;5.10;;;;;;;22.23;66.60;99367.08;111189;1205;61195;-78
2021/09/03 09:56:25;;;;;;;6.00;5.40;;;;;;;22.22;66.59;99366.15;111259;1204;63972;-82
2021/09/03 09:58:54;;;;;;;5.80;5.00;;;;;;;22.28;66.90;99355.38;111189;1197;60969;-83
2021/09/03 10:01:22;;;;;;;6.40;5.70;;;;;;;22.45;66.46;99355.60;111199;1197;61091;-80
2021/09/03 10:03:51;;;;;;;9.10;5.60;;;;;;;22.49;65.48;99358.99;111161;1204;66668;-82
2021/09/03 10:06:21;;;;;;;5.00;4.60;;;;;;;22.55;65.08;99362.25;111214;1204;60920;-77
2021/09/03 10:08:48;;;;;;;5.50;4.90;;;;;;;22.68;63.33;99358.46;111153;1204;64009;-80
2021/09/03 10:11:17;;;;;;;6.10;5.10;;;;;;;22.70;63.38;99352.86;111081;1204;61025;-80
2021/09/03 10:13:44;;;;;;;11.50;6.80;;;;;;;22.78;63.86;99351.70;111180;1204;61076;-80
2021/09/03 10:16:12;;;;;;;4.60;4.20;;;;;;;23.00;64.25;99354.31;111139;1204;66924;-80
2021/09/03 10:18:43;;;;;;;7.00;5.40;;;;;;;23.14;64.10;99355.31;111124;1204;61000;-79
2021/09/03 10:21:11;;;;;;;8.00;6.10;;;;;;;23.08;63.57;99351.15;111154;1204;63112;-80
2021/09/03 10:23:53;;;;;;;8.20;6.00;;;;;;;23.01;63.80;99351.58;111131;1196;61067;-80
2021/09/03 10:26:26;;;;;;;5.30;4.90;;;;;;;23.09;63.94;99350.61;111122;1197;61035;-80
2021/09/03 10:29:29;;;;;;;5.50;4.90;;;;;;;23.17;63.55;99348.30;111168;1204;64346;-80
2021/09/03 10:32:24;;;;;;;6.40;4.80;;;;;;;23.30;62.92;99347.91;111155;1204;61204;-81
2021/09/03 10:34:56;;;;;;;5.40;4.90;;;;;;;23.38;62.35;99346.76;111167;1204;63916;-80
2021/09/03 10:37:28;;;;;;;4.90;4.60;;;;;;;23.63;62.35;99341.77;111179;1198;61718;-80
2021/09/03 10:40:04;;;;;;;5.90;4.80;;;;;;;23.76;61.08;99335.52;111153;1204;61088;-81
2021/09/03 10:42:33;;;;;;;5.90;4.70;;;;;;;23.83;60.55;99334.40;111203;1204;65998;-80
2021/09/03 10:45:08;;;;;;;6.60;5.10;;;;;;;23.88;59.66;99328.46;111197;1204;60989;-80
2021/09/03 10:47:38;;;;;;;5.70;4.70;;;;;;;23.82;58.84;99326.27;111157;1204;64028;-80
2021/09/03 10:50:19;;;;;;;4.80;4.30;;;;;;;23.89;59.43;99322.23;111168;1204;61026;-80
2021/09/03 10:53:07;;;;;;;5.30;4.80;;;;;;;23.85;59.07;99325.77;111176;1204;61194;-79
2021/09/03 10:56:27;;;;;;;5.00;4.10;;;;;;;23.73;59.19;99324.84;111170;1204;66004;-80
2021/09/03 10:58:54;;;;;;;5.10;4.50;;;;;;;23.62;57.60;99318.83;110974;1204;61002;-80
2021/09/03 11:01:25;;;;;;;5.50;5.00;;;;;;;23.56;58.37;99321.14;111184;1204;64967;-80
2021/09/03 11:03:52;;;;;;;8.90;5.20;;;;;;;23.49;58.01;99317.64;111235;1197;61089;-80
2021/09/03 11:06:25;;;;;;;5.20;4.70;;;;;;;23.45;58.23;99310.27;111186;1197;61067;-81
2021/09/03 11:09:05;;;;;;;6.10;5.30;;;;;;;23.47;58.31;99308.02;111273;1204;64583;-80
2021/09/03 11:11:38;;;;;;;6.00;5.40;;;;;;;23.37;57.73;99305.86;111136;1204;61015;-79
2021/09/03 11:14:05;;;;;;;9.40;6.30;;;;;;;23.31;57.56;99302.61;111202;1197;64051;-80
2021/09/03 11:16:43;;;;;;;6.60;5.10;;;;;;;23.39;58.30;99305.45;111176;1197;61141;-80
2021/09/03 11:19:14;;;;;;;5.50;5.00;;;;;;;23.52;57.74;99300.05;111184;1199;60999;-80
2021/09/03 11:21:44;;;;;;;6.10;5.30;;;;;;;23.47;57.65;99296.30;111117;1204;65996;-80
2021/09/03 11:24:13;;;;;;;5.60;5.10;;;;;;;23.22;57.26;99300.19;111216;1200;60989;-79
2021/09/03 11:26:42;;;;;;;8.20;6.00;;;;;;;22.93;57.93;99297.22;111200;1204;62633;-79
2021/09/03 11:29:29;;;;;;;6.40;5.50;;;;;;;22.64;57.91;99297.81;111188;1198;61187;-79